sensor_id;sensor_type;location;lat;lon;timestamp;pressure;altitude;pressure_sealevel;temperature;humidity
42647;BME280;31319;53.678;-6.254;2023-02-13T00:01:08;103014.63;;;13.73;96.49
42647;BME280;31319;53.678;-6.254;2023-02-13T00:03:33;103017.13;;;13.65;100.00
42647;BME280;31319;53.678;-6.254;2023-02-13T00:05:59;103023.41;;;13.80;100.00
42647;BME280;31319;53.678;-6.254;2023-02-13T00:08:24;103021.69;;;14.00;99.83
42647;BME280;31319;53.678;-6.254;2023-02-13T00:10:50;103023.63;;;13.99;100.00
42647;BME280;31319;53.678;-6.254;2023-02-13T00:13:15;103020.00;;;14.14;99.80
42647;BME280;31319;53.678;-6.254;2023-02-13T00:15:41;103019.66;;;14.21;99.08
42647;BME280;31319;53.678;-6.254;2023-02-13T00:18:06;103020.63;;;13.91;100.00
42647;BME280;31319;53.678;-6.254;2023-02-13T00:20:32;103022.25;;;13.97;100.00
42647;BME280;31319;53.678;-6.254;2023-02-13T00:22:58;103017.88;;;13.91;100.00
42647;BME280;31319;53.678;-6.254;2023-02-13T00:25:24;103025.75;;;14.12;100.00
42647;BME280;31319;53.678;-6.254;2023-02-13T00:27:52;103019.72;;;14.15;100.00
42647;BME280;31319;53.678;-6.254;2023-02-13T00:30:20;103021.16;;;13.93;100.00
42647;BME280;31319;53.678;-6.254;2023-02-13T00:32:46;103024.09;;;14.11;100.00
42647;BME280;31319;53.678;-6.254;2023-02-13T00:35:12;103021.66;;;14.10;100.00
42647;BME280;31319;53.678;-6.254;2023-02-13T00:37:37;103015.25;;;14.25;100.00
42647;BME280;31319;53.678;-6.254;2023-02-13T00:40:03;103020.88;;;13.89;100.00
42647;BME280;31319;53.678;-6.254;2023-02-13T00:42:29;103013.75;;;13.88;100.00
42647;BME280;31319;53.678;-6.254;2023-02-13T00:44:54;103019.41;;;14.22;100.00
42647;BME280;31319;53.678;-6.254;2023-02-13T00:47:20;103019.94;;;14.19;100.00
42647;BME280;31319;53.678;-6.254;2023-02-13T00:49:46;103017.47;;;14.23;100.00
42647;BME280;31319;53.678;-6.254;2023-02-13T00:52:11;103020.75;;;14.30;100.00
42647;BME280;31319;53.678;-6.254;2023-02-13T00:54:37;103018.53;;;14.32;100.00
42647;BME280;31319;53.678;-6.254;2023-02-13T00:57:03;103012.44;;;14.35;100.00
42647;BME280;31319;53.678;-6.254;2023-02-13T00:59:28;103017.41;;;14.38;100.00
42647;BME280;31319;53.678;-6.254;2023-02-13T01:01:54;103022.31;;;14.51;100.00
42647;BME280;31319;53.678;-6.254;2023-02-13T01:04:19;103014.34;;;14.39;100.00
42647;BME280;31319;53.678;-6.254;2023-02-13T01:06:45;103013.25;;;14.35;100.00
42647;BME280;31319;53.678;-6.254;2023-02-13T01:09:11;103017.41;;;14.38;100.00
42647;BME280;31319;53.678;-6.254;2023-02-13T01:11:36;103019.31;;;14.37;100.00
42647;BME280;31319;53.678;-6.254;2023-02-13T01:14:02;103012.78;;;14.23;100.00
42647;BME280;31319;53.678;-6.254;2023-02-13T01:16:27;103022.69;;;14.24;100.00
42647;BME280;31319;53.678;-6.254;2023-02-13T01:18:53;103011.94;;;14.28;100.00
42647;BME280;31319;53.678;-6.254;2023-02-13T01:21:20;103012.25;;;14.21;100.00
42647;BME280;31319;53.678;-6.254;2023-02-13T01:23:47;103002.91;;;14.22;100.00
42647;BME280;31319;53.678;-6.254;2023-02-13T01:26:21;103001.28;;;14.11;100.00
42647;BME280;31319;53.678;-6.254;2023-02-13T01:28:51;103003.78;;;14.07;100.00
42647;BME280;31319;53.678;-6.254;2023-02-13T01:31:18;102990.81;;;14.13;100.00
42647;BME280;31319;53.678;-6.254;2023-02-13T01:33:45;102996.38;;;14.03;100.00
42647;BME280;31319;53.678;-6.254;2023-02-13T01:36:11;102993.09;;;14.06;100.00
42647;BME280;31319;53.678;-6.254;2023-02-13T01:38:39;102993.38;;;13.99;100.00
42647;BME280;31319;53.678;-6.254;2023-02-13T01:41:05;102995.56;;;13.97;100.00
42647;BME280;31319;53.678;-6.254;2023-02-13T01:46:14;102992.81;;;14.02;100.00
42647;BME280;31319;53.678;-6.254;2023-02-13T01:48:41;102996.38;;;14.03;100.00
42647;BME280;31319;53.678;-6.254;2023-02-13T01:51:11;102988.72;;;14.00;100.00
42647;BME280;31319;53.678;-6.254;2023-02-13T01:53:42;102988.13;;;14.08;100.00
42647;BME280;31319;53.678;-6.254;2023-02-13T01:56:14;102993.03;;;14.11;100.00
42647;BME280;31319;53.678;-6.254;2023-02-13T01:58:44;102986.72;;;14.15;100.00
42647;BME280;31319;53.678;-6.254;2023-02-13T02:01:11;102999.63;;;14.15;100.00
42647;BME280;31319;53.678;-6.254;2023-02-13T02:03:40;102998.53;;;14.11;100.00
42647;BME280;31319;53.678;-6.254;2023-02-13T02:06:13;102988.13;;;14.03;100.00
42647;BME280;31319;53.678;-6.254;2023-02-13T02:08:40;102985.91;;;14.05;100.00
42647;BME280;31319;53.678;-6.254;2023-02-13T02:11:13;102983.50;;;13.93;100.00
42647;BME280;31319;53.678;-6.254;2023-02-13T02:13:41;102979.16;;;13.82;100.00
42647;BME280;31319;53.678;-6.254;2023-02-13T02:16:07;102978.84;;;13.88;100.00
42647;BME280;31319;53.678;-6.254;2023-02-13T02:18:33;102983.56;;;13.73;100.00
42647;BME280;31319;53.678;-6.254;2023-02-13T02:21:42;102981.69;;;13.68;100.00
42647;BME280;31319;53.678;-6.254;2023-02-13T02:26:53;102981.94;;;13.72;100.00
42647;BME280;31319;53.678;-6.254;2023-02-13T02:43:07;102960.81;;;13.62;100.00
42647;BME280;31319;53.678;-6.254;2023-02-13T02:48:30;102951.00;;;13.46;100.00
42647;BME280;31319;53.678;-6.254;2023-02-13T02:51:23;102952.66;;;13.16;100.00
42647;BME280;31319;53.678;-6.254;2023-02-13T02:56:28;102951.03;;;13.15;100.00
42647;BME280;31319;53.678;-6.254;2023-02-13T03:01:42;102956.22;;;13.12;100.00
42647;BME280;31319;53.678;-6.254;2023-02-13T03:04:31;102949.38;;;13.09;100.00
42647;BME280;31319;53.678;-6.254;2023-02-13T03:07:17;102946.91;;;12.97;100.00
42647;BME280;31319;53.678;-6.254;2023-02-13T03:09:48;102948.81;;;12.97;100.00
42647;BME280;31319;53.678;-6.254;2023-02-13T03:12:43;102945.81;;;12.93;100.00
42647;BME280;31319;53.678;-6.254;2023-02-13T03:15:29;102940.34;;;12.93;100.00
42647;BME280;31319;53.678;-6.254;2023-02-13T03:17:55;102937.31;;;12.95;100.00
42647;BME280;31319;53.678;-6.254;2023-02-13T03:21:17;102940.63;;;12.71;100.00
42647;BME280;31319;53.678;-6.254;2023-02-13T03:24:23;102937.31;;;12.74;100.00
42647;BME280;31319;53.678;-6.254;2023-02-13T03:27:11;102932.34;;;12.97;100.00
42647;BME280;31319;53.678;-6.254;2023-02-13T03:29:48;102938.97;;;12.81;100.00
42647;BME280;31319;53.678;-6.254;2023-02-13T03:32:43;102927.97;;;12.75;100.00
42647;BME280;31319;53.678;-6.254;2023-02-13T03:35:26;102935.09;;;12.76;100.00
42647;BME280;31319;53.678;-6.254;2023-02-13T03:38:21;102935.66;;;12.84;100.00
42647;BME280;31319;53.678;-6.254;2023-02-13T03:40:51;102927.44;;;12.94;100.00
42647;BME280;31319;53.678;-6.254;2023-02-13T03:46:38;102922.47;;;12.91;100.00
42647;BME280;31319;53.678;-6.254;2023-02-13T03:49:10;102925.22;;;12.96;100.00
42647;BME280;31319;53.678;-6.254;2023-02-13T03:52:31;102927.41;;;12.99;100.00
42647;BME280;31319;53.678;-6.254;2023-02-13T03:54:53;102930.72;;;12.96;100.00
42647;BME280;31319;53.678;-6.254;2023-02-13T03:57:39;102927.16;;;12.90;100.00
42647;BME280;31319;53.678;-6.254;2023-02-13T04:00:27;102918.63;;;13.12;100.00
42647;BME280;31319;53.678;-6.254;2023-02-13T04:03:14;102925.78;;;13.08;100.00
42647;BME280;31319;53.678;-6.254;2023-02-13T04:05:46;102922.47;;;13.06;100.00
42647;BME280;31319;53.678;-6.254;2023-02-13T04:08:12;102920.81;;;13.20;100.00
42647;BME280;31319;53.678;-6.254;2023-02-13T04:10:52;102912.31;;;13.12;100.00
42647;BME280;31319;53.678;-6.254;2023-02-13T04:13:33;102912.06;;;13.23;100.00
42647;BME280;31319;53.678;-6.254;2023-02-13T04:16:09;102916.44;;;13.24;100.00
42647;BME280;31319;53.678;-6.254;2023-02-13T04:18:36;102909.84;;;13.20;100.00
42647;BME280;31319;53.678;-6.254;2023-02-13T04:21:04;102916.97;;;13.31;100.00
42647;BME280;31319;53.678;-6.254;2023-02-13T04:23:30;102911.44;;;13.37;100.00
42647;BME280;31319;53.678;-6.254;2023-02-13T04:25:56;102910.38;;;13.17;100.00
42647;BME280;31319;53.678;-6.254;2023-02-13T04:28:24;102908.22;;;13.09;100.00
42647;BME280;31319;53.678;-6.254;2023-02-13T04:30:49;102908.75;;;12.91;100.00
42647;BME280;31319;53.678;-6.254;2023-02-13T04:33:15;102909.31;;;13.03;100.00
42647;BME280;31319;53.678;-6.254;2023-02-13T04:35:41;102912.06;;;12.88;100.00
42647;BME280;31319;53.678;-6.254;2023-02-13T04:38:06;102911.81;;;12.79;100.00
42647;BME280;31319;53.678;-6.254;2023-02-13T04:40:32;102910.97;;;12.78;100.00
42647;BME280;31319;53.678;-6.254;2023-02-13T04:42:57;102905.19;;;12.90;100.00
42647;BME280;31319;53.678;-6.254;2023-02-13T04:45:23;102909.56;;;13.06;100.00
42647;BME280;31319;53.678;-6.254;2023-02-13T04:47:53;102901.63;;;13.05;100.00
42647;BME280;31319;53.678;-6.254;2023-02-13T04:50:19;102902.47;;;12.85;100.00
42647;BME280;31319;53.678;-6.254;2023-02-13T04:52:45;102898.91;;;12.69;100.00
42647;BME280;31319;53.678;-6.254;2023-02-13T04:55:11;102902.72;;;12.84;100.00
42647;BME280;31319;53.678;-6.254;2023-02-13T04:57:36;102902.19;;;12.82;100.00
42647;BME280;31319;53.678;-6.254;2023-02-13T05:00:04;102912.09;;;12.77;100.00
42647;BME280;31319;53.678;-6.254;2023-02-13T05:02:30;102903.28;;;12.81;100.00
42647;BME280;31319;53.678;-6.254;2023-02-13T05:04:56;102903.03;;;12.72;100.00
42647;BME280;31319;53.678;-6.254;2023-02-13T05:07:21;102910.16;;;12.78;100.00
42647;BME280;31319;53.678;-6.254;2023-02-13T05:09:47;102903.84;;;12.57;100.00
42647;BME280;31319;53.678;-6.254;2023-02-13T05:12:12;102902.75;;;12.78;100.00
42647;BME280;31319;53.678;-6.254;2023-02-13T05:14:38;102897.25;;;12.68;100.00
42647;BME280;31319;53.678;-6.254;2023-02-13T05:17:03;102901.38;;;12.56;100.00
42647;BME280;31319;53.678;-6.254;2023-02-13T05:19:29;102903.84;;;12.52;100.00
42647;BME280;31319;53.678;-6.254;2023-02-13T05:21:54;102901.63;;;12.54;100.00
42647;BME280;31319;53.678;-6.254;2023-02-13T05:24:39;102901.66;;;12.59;100.00
42647;BME280;31319;53.678;-6.254;2023-02-13T05:27:07;102900.81;;;12.54;100.00
42647;BME280;31319;53.678;-6.254;2023-02-13T05:29:33;102904.13;;;12.50;100.00
42647;BME280;31319;53.678;-6.254;2023-02-13T05:31:58;102900.00;;;12.43;100.00
42647;BME280;31319;53.678;-6.254;2023-02-13T05:34:26;102902.19;;;12.41;100.00
42647;BME280;31319;53.678;-6.254;2023-02-13T05:36:52;102905.75;;;12.46;100.00
42647;BME280;31319;53.678;-6.254;2023-02-13T05:39:18;102906.84;;;12.50;100.00
42647;BME280;31319;53.678;-6.254;2023-02-13T05:41:45;102902.75;;;12.48;100.00
42647;BME280;31319;53.678;-6.254;2023-02-13T05:44:11;102897.78;;;12.45;100.00
42647;BME280;31319;53.678;-6.254;2023-02-13T05:46:38;102901.06;;;12.21;100.00
42647;BME280;31319;53.678;-6.254;2023-02-13T05:49:04;102889.56;;;12.30;100.00
42647;BME280;31319;53.678;-6.254;2023-02-13T05:51:30;102891.78;;;12.43;100.00
42647;BME280;31319;53.678;-6.254;2023-02-13T05:53:55;102889.25;;;12.16;100.00
42647;BME280;31319;53.678;-6.254;2023-02-13T05:56:21;102886.25;;;12.02;100.00
42647;BME280;31319;53.678;-6.254;2023-02-13T05:58:50;102892.56;;;12.13;100.00
42647;BME280;31319;53.678;-6.254;2023-02-13T06:01:16;102888.97;;;12.02;100.00
42647;BME280;31319;53.678;-6.254;2023-02-13T06:03:42;102889.56;;;12.35;100.00
42647;BME280;31319;53.678;-6.254;2023-02-13T06:06:07;102881.06;;;12.21;100.00
42647;BME280;31319;53.678;-6.254;2023-02-13T06:08:33;102887.13;;;12.33;100.00
42647;BME280;31319;53.678;-6.254;2023-02-13T06:10:59;102885.75;;;12.51;100.00
42647;BME280;31319;53.678;-6.254;2023-02-13T06:13:24;102884.13;;;12.70;100.00
42647;BME280;31319;53.678;-6.254;2023-02-13T06:15:50;102881.34;;;12.65;100.00
42647;BME280;31319;53.678;-6.254;2023-02-13T06:18:15;102873.13;;;12.65;100.00
42647;BME280;31319;53.678;-6.254;2023-02-13T06:20:41;102871.22;;;12.56;100.00
42647;BME280;31319;53.678;-6.254;2023-02-13T06:23:07;102877.50;;;12.31;100.00
42647;BME280;31319;53.678;-6.254;2023-02-13T06:25:36;102876.72;;;12.40;100.00
42647;BME280;31319;53.678;-6.254;2023-02-13T06:28:02;102876.41;;;12.67;100.00
42647;BME280;31319;53.678;-6.254;2023-02-13T06:30:28;102875.31;;;12.53;100.00
42647;BME280;31319;53.678;-6.254;2023-02-13T06:32:54;102870.38;;;12.50;100.00
42647;BME280;31319;53.678;-6.254;2023-02-13T06:35:20;102853.66;;;12.52;100.00
42647;BME280;31319;53.678;-6.254;2023-02-13T06:37:45;102849.25;;;12.45;100.00
42647;BME280;31319;53.678;-6.254;2023-02-13T06:40:12;102859.69;;;12.48;100.00
42647;BME280;31319;53.678;-6.254;2023-02-13T06:42:38;102853.38;;;12.58;100.00
42647;BME280;31319;53.678;-6.254;2023-02-13T06:45:04;102861.34;;;12.39;100.00
42647;BME280;31319;53.678;-6.254;2023-02-13T06:47:30;102856.09;;;12.22;100.00
42647;BME280;31319;53.678;-6.254;2023-02-13T06:49:55;102863.78;;;12.05;100.00
42647;BME280;31319;53.678;-6.254;2023-02-13T06:52:21;102861.25;;;11.83;100.00
42647;BME280;31319;53.678;-6.254;2023-02-13T06:54:47;102858.81;;;11.92;100.00
42647;BME280;31319;53.678;-6.254;2023-02-13T06:57:12;102854.97;;;11.98;100.00
42647;BME280;31319;53.678;-6.254;2023-02-13T06:59:38;102858.28;;;12.00;100.00
42647;BME280;31319;53.678;-6.254;2023-02-13T07:02:03;102851.34;;;11.77;100.00
42647;BME280;31319;53.678;-6.254;2023-02-13T07:04:29;102853.75;;;11.58;100.00
42647;BME280;31319;53.678;-6.254;2023-02-13T07:06:55;102861.47;;;11.72;100.00
42647;BME280;31319;53.678;-6.254;2023-02-13T07:09:21;102851.34;;;11.72;100.00
42647;BME280;31319;53.678;-6.254;2023-02-13T07:11:47;102858.28;;;12.00;100.00
42647;BME280;31319;53.678;-6.254;2023-02-13T07:14:13;102855.56;;;12.10;100.00
42647;BME280;31319;53.678;-6.254;2023-02-13T07:16:38;102856.63;;;11.99;100.00
42647;BME280;31319;53.678;-6.254;2023-02-13T07:19:04;102850.06;;;12.05;100.00
42647;BME280;31319;53.678;-6.254;2023-02-13T07:21:29;102863.47;;;11.97;100.00
42647;BME280;31319;53.678;-6.254;2023-02-13T07:23:55;102854.72;;;11.94;100.00
42647;BME280;31319;53.678;-6.254;2023-02-13T07:26:20;102858.28;;;11.95;100.00
42647;BME280;31319;53.678;-6.254;2023-02-13T07:28:46;102862.66;;;12.01;100.00
42647;BME280;31319;53.678;-6.254;2023-02-13T07:31:11;102848.69;;;11.87;100.00
42647;BME280;31319;53.678;-6.254;2023-02-13T07:33:37;102848.56;;;11.57;100.00
42647;BME280;31319;53.678;-6.254;2023-02-13T07:36:03;102851.59;;;11.76;100.00
42647;BME280;31319;53.678;-6.254;2023-02-13T07:38:29;102853.78;;;11.68;100.00
42647;BME280;31319;53.678;-6.254;2023-02-13T07:40:59;102854.03;;;11.57;100.00
42647;BME280;31319;53.678;-6.254;2023-02-13T07:43:25;102856.75;;;11.52;100.00
42647;BME280;31319;53.678;-6.254;2023-02-13T07:45:51;102846.69;;;11.78;100.00
42647;BME280;31319;53.678;-6.254;2023-02-13T07:48:21;102847.25;;;11.80;100.00
42647;BME280;31319;53.678;-6.254;2023-02-13T07:50:47;102848.09;;;11.80;100.00
42647;BME280;31319;53.678;-6.254;2023-02-13T07:53:13;102849.50;;;11.88;100.00
42647;BME280;31319;53.678;-6.254;2023-02-13T07:55:39;102837.19;;;11.96;100.00
42647;BME280;31319;53.678;-6.254;2023-02-13T07:58:04;102842.41;;;12.02;100.00
42647;BME280;31319;53.678;-6.254;2023-02-13T08:00:30;102856.88;;;11.92;100.00
42647;BME280;31319;53.678;-6.254;2023-02-13T08:02:59;102851.44;;;12.13;100.00
42647;BME280;31319;53.678;-6.254;2023-02-13T08:05:25;102851.16;;;11.94;100.00
42647;BME280;31319;53.678;-6.254;2023-02-13T08:07:51;102841.22;;;11.73;100.00
42647;BME280;31319;53.678;-6.254;2023-02-13T08:10:17;102853.59;;;11.90;100.00
42647;BME280;31319;53.678;-6.254;2023-02-13T08:13:01;102865.09;;;11.92;100.00
42647;BME280;31319;53.678;-6.254;2023-02-13T08:15:27;102859.91;;;12.01;100.00
42647;BME280;31319;53.678;-6.254;2023-02-13T08:17:52;102856.94;;;12.18;100.00
42647;BME280;31319;53.678;-6.254;2023-02-13T08:20:18;102863.75;;;12.00;100.00
42647;BME280;31319;53.678;-6.254;2023-02-13T08:22:43;102862.72;;;12.27;100.00
42647;BME280;31319;53.678;-6.254;2023-02-13T08:25:09;102866.53;;;12.31;100.00
42647;BME280;31319;53.678;-6.254;2023-02-13T08:27:35;102868.22;;;12.47;100.00
42647;BME280;31319;53.678;-6.254;2023-02-13T08:30:01;102869.03;;;12.42;100.00
42647;BME280;31319;53.678;-6.254;2023-02-13T08:32:27;102865.47;;;12.42;100.00
42647;BME280;31319;53.678;-6.254;2023-02-13T08:34:53;102868.75;;;12.64;100.00
42647;BME280;31319;53.678;-6.254;2023-02-13T08:37:18;102872.84;;;12.67;100.00
42647;BME280;31319;53.678;-6.254;2023-02-13T08:39:44;102870.66;;;12.59;100.00
42647;BME280;31319;53.678;-6.254;2023-02-13T08:42:09;102873.66;;;12.83;100.00
42647;BME280;31319;53.678;-6.254;2023-02-13T08:44:35;102867.06;;;12.84;100.00
42647;BME280;31319;53.678;-6.254;2023-02-13T08:47:02;102869.00;;;12.78;100.00
42647;BME280;31319;53.678;-6.254;2023-02-13T08:49:29;102873.09;;;12.91;100.00
42647;BME280;31319;53.678;-6.254;2023-02-13T08:51:54;102870.09;;;12.67;100.00
42647;BME280;31319;53.678;-6.254;2023-02-13T08:54:20;102874.22;;;12.74;100.00
42647;BME280;31319;53.678;-6.254;2023-02-13T08:56:45;102875.56;;;13.08;100.00
42647;BME280;31319;53.678;-6.254;2023-02-13T08:59:11;102880.72;;;13.14;100.00
42647;BME280;31319;53.678;-6.254;2023-02-13T09:01:37;102874.16;;;13.05;100.00
42647;BME280;31319;53.678;-6.254;2023-02-13T09:04:02;102885.41;;;13.24;100.00
42647;BME280;31319;53.678;-6.254;2023-02-13T09:06:28;102886.47;;;13.33;100.00
42647;BME280;31319;53.678;-6.254;2023-02-13T09:08:53;102881.00;;;13.33;100.00
42647;BME280;31319;53.678;-6.254;2023-02-13T09:11:19;102883.44;;;13.35;100.00
42647;BME280;31319;53.678;-6.254;2023-02-13T09:13:48;102887.31;;;13.39;100.00
42647;BME280;31319;53.678;-6.254;2023-02-13T09:16:14;102891.69;;;13.40;100.00
42647;BME280;31319;53.678;-6.254;2023-02-13T09:18:40;102885.66;;;13.38;100.00
42647;BME280;31319;53.678;-6.254;2023-02-13T09:21:07;102887.00;;;13.45;100.00
42647;BME280;31319;53.678;-6.254;2023-02-13T09:23:35;102888.28;;;13.68;100.00
42647;BME280;31319;53.678;-6.254;2023-02-13T09:26:02;102884.44;;;13.59;100.00
42647;BME280;31319;53.678;-6.254;2023-02-13T09:28:29;102881.16;;;13.62;100.00
42647;BME280;31319;53.678;-6.254;2023-02-13T09:30:55;102881.09;;;13.72;100.00
42647;BME280;31319;53.678;-6.254;2023-02-13T09:33:21;102883.78;;;13.87;100.00
42647;BME280;31319;53.678;-6.254;2023-02-13T09:35:46;102885.13;;;13.90;100.00
42647;BME280;31319;53.678;-6.254;2023-02-13T09:38:12;102880.72;;;13.94;100.00
42647;BME280;31319;53.678;-6.254;2023-02-13T09:43:15;102878.75;;;14.00;100.00
42647;BME280;31319;53.678;-6.254;2023-02-13T09:45:43;102879.50;;;14.10;100.00
42647;BME280;31319;53.678;-6.254;2023-02-13T09:48:35;102877.25;;;14.18;100.00
42647;BME280;31319;53.678;-6.254;2023-02-13T09:51:03;102874.84;;;14.11;100.00
42647;BME280;31319;53.678;-6.254;2023-02-13T09:53:28;102864.75;;;14.35;100.00
42647;BME280;31319;53.678;-6.254;2023-02-13T09:56:13;102872.97;;;14.40;100.00
42647;BME280;31319;53.678;-6.254;2023-02-13T09:58:44;102860.75;;;14.57;100.00
42647;BME280;31319;53.678;-6.254;2023-02-13T10:01:32;102868.47;;;14.60;100.00
42647;BME280;31319;53.678;-6.254;2023-02-13T10:06:44;102865.44;;;15.14;100.00
42647;BME280;31319;53.678;-6.254;2023-02-13T10:09:26;102871.25;;;15.13;100.00
42647;BME280;31319;53.678;-6.254;2023-02-13T10:17:10;102870.81;;;15.24;100.00
42647;BME280;31319;53.678;-6.254;2023-02-13T10:19:47;102869.41;;;15.51;100.00
42647;BME280;31319;53.678;-6.254;2023-02-13T10:22:20;102858.44;;;15.70;100.00
42647;BME280;31319;53.678;-6.254;2023-02-13T10:25:02;102874.44;;;15.68;100.00
42647;BME280;31319;53.678;-6.254;2023-02-13T10:27:34;102860.50;;;15.35;100.00
42647;BME280;31319;53.678;-6.254;2023-02-13T10:30:32;102854.06;;;15.45;100.00
42647;BME280;31319;53.678;-6.254;2023-02-13T10:33:19;102867.38;;;15.62;100.00
42647;BME280;31319;53.678;-6.254;2023-02-13T10:35:58;102869.41;;;15.75;100.00
42647;BME280;31319;53.678;-6.254;2023-02-13T10:38:28;102860.84;;;15.95;100.00
42647;BME280;31319;53.678;-6.254;2023-02-13T10:41:05;102857.34;;;15.90;99.80
42647;BME280;31319;53.678;-6.254;2023-02-13T10:52:53;102870.06;;;16.23;94.42
42647;BME280;31319;53.678;-6.254;2023-02-13T10:55:49;102861.91;;;16.32;92.45
42647;BME280;31319;53.678;-6.254;2023-02-13T10:58:28;102868.19;;;16.37;92.74
42647;BME280;31319;53.678;-6.254;2023-02-13T11:04:11;102854.50;;;16.46;87.81
42647;BME280;31319;53.678;-6.254;2023-02-13T11:06:41;102851.31;;;16.39;87.36
42647;BME280;31319;53.678;-6.254;2023-02-13T11:09:07;102855.81;;;16.35;87.99
42647;BME280;31319;53.678;-6.254;2023-02-13T11:11:39;102848.59;;;16.53;82.53
42647;BME280;31319;53.678;-6.254;2023-02-13T11:14:28;102848.06;;;16.70;79.73
42647;BME280;31319;53.678;-6.254;2023-02-13T11:17:02;102856.38;;;16.83;79.82
42647;BME280;31319;53.678;-6.254;2023-02-13T11:19:53;102855.13;;;16.76;81.01
42647;BME280;31319;53.678;-6.254;2023-02-13T11:22:32;102850.16;;;16.78;79.55
42647;BME280;31319;53.678;-6.254;2023-02-13T11:25:20;102844.25;;;16.65;81.48
42647;BME280;31319;53.678;-6.254;2023-02-13T11:27:48;102832.66;;;16.82;79.74
42647;BME280;31319;53.678;-6.254;2023-02-13T11:30:35;102838.59;;;16.89;76.01
42647;BME280;31319;53.678;-6.254;2023-02-13T11:33:23;102827.94;;;16.83;75.38
42647;BME280;31319;53.678;-6.254;2023-02-13T11:36:07;102832.78;;;17.18;73.35
42647;BME280;31319;53.678;-6.254;2023-02-13T11:38:33;102830.94;;;17.28;73.42
42647;BME280;31319;53.678;-6.254;2023-02-13T11:41:06;102817.50;;;17.48;71.03
42647;BME280;31319;53.678;-6.254;2023-02-13T11:43:43;102817.34;;;17.17;72.78
42647;BME280;31319;53.678;-6.254;2023-02-13T11:48:39;102820.28;;;17.07;76.59
42647;BME280;31319;53.678;-6.254;2023-02-13T11:51:05;102833.28;;;17.07;77.09
42647;BME280;31319;53.678;-6.254;2023-02-13T11:53:35;102826.34;;;16.96;77.26
42647;BME280;31319;53.678;-6.254;2023-02-13T11:56:10;102818.47;;;17.16;74.77
42647;BME280;31319;53.678;-6.254;2023-02-13T11:58:36;102822.25;;;17.20;75.86
42647;BME280;31319;53.678;-6.254;2023-02-13T12:01:20;102815.59;;;17.22;75.44
42647;BME280;31319;53.678;-6.254;2023-02-13T12:04:01;102814.88;;;17.30;76.20
42647;BME280;31319;53.678;-6.254;2023-02-13T12:06:28;102816.63;;;17.26;79.18
42647;BME280;31319;53.678;-6.254;2023-02-13T12:08:54;102807.28;;;17.35;78.88
42647;BME280;31319;53.678;-6.254;2023-02-13T12:11:21;102805.72;;;17.57;77.96
42647;BME280;31319;53.678;-6.254;2023-02-13T12:13:49;102813.53;;;17.41;81.15
42647;BME280;31319;53.678;-6.254;2023-02-13T12:16:36;102805.47;;;17.31;80.18
42647;BME280;31319;53.678;-6.254;2023-02-13T12:19:06;102807.91;;;17.32;81.95
42647;BME280;31319;53.678;-6.254;2023-02-13T12:22:08;102804.44;;;17.40;83.43
42647;BME280;31319;53.678;-6.254;2023-02-13T12:25:00;102795.38;;;17.62;81.15
42647;BME280;31319;53.678;-6.254;2023-02-13T12:28:01;102799.50;;;17.37;81.85
42647;BME280;31319;53.678;-6.254;2023-02-13T12:38:33;102772.47;;;17.48;79.97
42647;BME280;31319;53.678;-6.254;2023-02-13T12:41:15;102767.06;;;17.43;79.61
42647;BME280;31319;53.678;-6.254;2023-02-13T12:46:52;102767.50;;;17.23;80.62
42647;BME280;31319;53.678;-6.254;2023-02-13T12:49:56;102770.03;;;17.46;79.98
42647;BME280;31319;53.678;-6.254;2023-02-13T12:52:42;102764.28;;;17.43;78.96
42647;BME280;31319;53.678;-6.254;2023-02-13T12:55:14;102755.16;;;17.56;79.03
42647;BME280;31319;53.678;-6.254;2023-02-13T13:03:06;102748.72;;;17.83;73.25
42647;BME280;31319;53.678;-6.254;2023-02-13T13:17:37;102740.75;;;18.04;80.35
42647;BME280;31319;53.678;-6.254;2023-02-13T13:25:54;102739.88;;;18.48;72.29
42647;BME280;31319;53.678;-6.254;2023-02-13T13:28:28;102723.44;;;17.98;75.89
42647;BME280;31319;53.678;-6.254;2023-02-13T13:30:56;102735.75;;;18.06;75.86
42647;BME280;31319;53.678;-6.254;2023-02-13T13:33:24;102738.84;;;17.68;79.27
42647;BME280;31319;53.678;-6.254;2023-02-13T13:39:05;102727.31;;;17.89;79.23
42647;BME280;31319;53.678;-6.254;2023-02-13T13:47:18;102707.94;;;18.11;80.12
42647;BME280;31319;53.678;-6.254;2023-02-13T13:49:55;102714.09;;;18.08;80.31
42647;BME280;31319;53.678;-6.254;2023-02-13T13:52:27;102708.66;;;18.25;80.38
42647;BME280;31319;53.678;-6.254;2023-02-13T13:54:53;102699.81;;;18.46;77.94
42647;BME280;31319;53.678;-6.254;2023-02-13T14:07:44;102683.97;;;18.69;75.48
42647;BME280;31319;53.678;-6.254;2023-02-13T14:25:46;102672.00;;;18.20;79.46
42647;BME280;31319;53.678;-6.254;2023-02-13T14:28:24;102672.38;;;17.96;78.54
42647;BME280;31319;53.678;-6.254;2023-02-13T14:30:51;102661.63;;;18.25;77.32
42647;BME280;31319;53.678;-6.254;2023-02-13T14:33:29;102660.47;;;18.26;77.65
42647;BME280;31319;53.678;-6.254;2023-02-13T14:36:07;102655.84;;;18.13;77.83
42647;BME280;31319;53.678;-6.254;2023-02-13T14:38:34;102654.16;;;18.35;75.56
42647;BME280;31319;53.678;-6.254;2023-02-13T14:41:01;102659.53;;;18.31;75.69
42647;BME280;31319;53.678;-6.254;2023-02-13T14:43:50;102654.16;;;18.35;74.92
42647;BME280;31319;53.678;-6.254;2023-02-13T14:46:26;102655.72;;;18.18;76.90
42647;BME280;31319;53.678;-6.254;2023-02-13T14:49:06;102658.44;;;18.49;73.76
42647;BME280;31319;53.678;-6.254;2023-02-13T14:51:44;102654.19;;;18.43;74.38
42647;BME280;31319;53.678;-6.254;2023-02-13T14:54:20;102660.28;;;18.54;72.36
42647;BME280;31319;53.678;-6.254;2023-02-13T14:56:50;102651.47;;;18.52;73.39